sensor_id;sensor_type;location;lat;lon;timestamp;temperature;humidity
70593;DHT22;58294;42.988;20.338;2022-10-17T00:01:11;205.40;1740.80
70593;DHT22;58294;42.988;20.338;2022-10-17T00:03:38;205.30;1766.40
70593;DHT22;58294;42.988;20.338;2022-10-17T00:06:10;205.30;1766.40
70593;DHT22;58294;42.988;20.338;2022-10-17T00:08:37;205.30;1766.40
70593;DHT22;58294;42.988;20.338;2022-10-17T00:11:11;205.30;1792.00
70593;DHT22;58294;42.988;20.338;2022-10-17T00:13:37;205.30;1766.40
70593;DHT22;58294;42.988;20.338;2022-10-17T00:16:03;205.30;1740.80
70593;DHT22;58294;42.988;20.338;2022-10-17T00:18:29;205.20;1766.40
70593;DHT22;58294;42.988;20.338;2022-10-17T00:20:55;205.20;1766.40
70593;DHT22;58294;42.988;20.338;2022-10-17T00:23:21;205.10;1766.40
70593;DHT22;58294;42.988;20.338;2022-10-17T00:25:56;205.10;1766.40
70593;DHT22;58294;42.988;20.338;2022-10-17T00:28:21;205.10;1766.40
70593;DHT22;58294;42.988;20.338;2022-10-17T00:31:03;205.00;1792.00
70593;DHT22;58294;42.988;20.338;2022-10-17T00:33:30;205.00;1792.00
70593;DHT22;58294;42.988;20.338;2022-10-17T00:36:04;205.00;1792.00
70593;DHT22;58294;42.988;20.338;2022-10-17T00:38:30;205.00;1792.00
70593;DHT22;58294;42.988;20.338;2022-10-17T00:40:56;205.00;1766.40
70593;DHT22;58294;42.988;20.338;2022-10-17T00:43:22;204.90;1792.00
70593;DHT22;58294;42.988;20.338;2022-10-17T00:45:48;204.80;1792.00
70593;DHT22;58294;42.988;20.338;2022-10-17T00:48:14;204.80;1792.00
70593;DHT22;58294;42.988;20.338;2022-10-17T00:50:43;204.90;1792.00
70593;DHT22;58294;42.988;20.338;2022-10-17T00:53:11;204.90;1766.40
70593;DHT22;58294;42.988;20.338;2022-10-17T00:55:43;204.90;1766.40
70593;DHT22;58294;42.988;20.338;2022-10-17T00:58:10;204.80;1792.00
70593;DHT22;58294;42.988;20.338;2022-10-17T01:00:36;204.80;1792.00
70593;DHT22;58294;42.988;20.338;2022-10-17T01:03:02;180.10;1792.00
70593;DHT22;58294;42.988;20.338;2022-10-17T01:05:28;180.10;1817.60
70593;DHT22;58294;42.988;20.338;2022-10-17T01:07:54;180.00;1792.00
70593;DHT22;58294;42.988;20.338;2022-10-17T01:10:21;180.00;1792.00
70593;DHT22;58294;42.988;20.338;2022-10-17T01:13:01;179.90;1792.00
70593;DHT22;58294;42.988;20.338;2022-10-17T01:21:38;179.80;1792.00
70593;DHT22;58294;42.988;20.338;2022-10-17T01:24:22;179.80;1817.60
70593;DHT22;58294;42.988;20.338;2022-10-17T01:26:56;179.80;1817.60
70593;DHT22;58294;42.988;20.338;2022-10-17T01:29:30;179.80;1843.20
70593;DHT22;58294;42.988;20.338;2022-10-17T01:32:09;179.80;1817.60
70593;DHT22;58294;42.988;20.338;2022-10-17T01:34:50;179.70;1817.60
70593;DHT22;58294;42.988;20.338;2022-10-17T01:40:15;179.70;1843.20
70593;DHT22;58294;42.988;20.338;2022-10-17T01:45:17;179.70;1843.20
70593;DHT22;58294;42.988;20.338;2022-10-17T01:47:46;179.60;1843.20
70593;DHT22;58294;42.988;20.338;2022-10-17T01:50:30;179.60;1843.20
70593;DHT22;58294;42.988;20.338;2022-10-17T01:53:07;179.60;1843.20
70593;DHT22;58294;42.988;20.338;2022-10-17T01:55:38;179.60;1817.60
70593;DHT22;58294;42.988;20.338;2022-10-17T01:58:12;179.50;1843.20
70593;DHT22;58294;42.988;20.338;2022-10-17T02:00:42;179.50;1843.20
70593;DHT22;58294;42.988;20.338;2022-10-17T02:03:11;179.50;1843.20
70593;DHT22;58294;42.988;20.338;2022-10-17T02:05:40;179.50;1868.80
70593;DHT22;58294;42.988;20.338;2022-10-17T02:08:06;179.50;1843.20
70593;DHT22;58294;42.988;20.338;2022-10-17T02:10:41;179.50;1843.20
70593;DHT22;58294;42.988;20.338;2022-10-17T02:16:07;179.40;1843.20
70593;DHT22;58294;42.988;20.338;2022-10-17T02:18:57;179.40;1843.20
70593;DHT22;58294;42.988;20.338;2022-10-17T02:24:31;179.20;1843.20
70593;DHT22;58294;42.988;20.338;2022-10-17T02:27:13;179.20;1843.20
70593;DHT22;58294;42.988;20.338;2022-10-17T02:30:30;179.20;1843.20
70593;DHT22;58294;42.988;20.338;2022-10-17T02:35:14;154.50;1868.80
70593;DHT22;58294;42.988;20.338;2022-10-17T02:37:41;154.50;1894.40
70593;DHT22;58294;42.988;20.338;2022-10-17T02:40:09;154.50;1868.80
70593;DHT22;58294;42.988;20.338;2022-10-17T02:42:36;154.50;1868.80
70593;DHT22;58294;42.988;20.338;2022-10-17T02:45:03;154.50;1868.80
70593;DHT22;58294;42.988;20.338;2022-10-17T02:50:45;154.50;1843.20
70593;DHT22;58294;42.988;20.338;2022-10-17T02:53:16;154.50;1868.80
70593;DHT22;58294;42.988;20.338;2022-10-17T02:55:55;154.40;1868.80
70593;DHT22;58294;42.988;20.338;2022-10-17T02:58:29;154.30;1868.80
70593;DHT22;58294;42.988;20.338;2022-10-17T03:00:56;154.30;1894.40
70593;DHT22;58294;42.988;20.338;2022-10-17T03:03:30;154.30;1868.80
70593;DHT22;58294;42.988;20.338;2022-10-17T03:05:56;154.30;1868.80
70593;DHT22;58294;42.988;20.338;2022-10-17T03:08:22;154.30;1868.80
70593;DHT22;58294;42.988;20.338;2022-10-17T03:10:49;154.20;1894.40
70593;DHT22;58294;42.988;20.338;2022-10-17T03:13:15;154.20;1894.40
70593;DHT22;58294;42.988;20.338;2022-10-17T03:15:41;154.20;1894.40
70593;DHT22;58294;42.988;20.338;2022-10-17T03:18:07;154.20;1920.00
70593;DHT22;58294;42.988;20.338;2022-10-17T03:20:33;154.20;1894.40
70593;DHT22;58294;42.988;20.338;2022-10-17T03:22:59;154.10;1894.40
70593;DHT22;58294;42.988;20.338;2022-10-17T03:25:25;154.10;1894.40
70593;DHT22;58294;42.988;20.338;2022-10-17T03:27:51;154.10;1920.00
70593;DHT22;58294;42.988;20.338;2022-10-17T03:30:17;154.10;1894.40
70593;DHT22;58294;42.988;20.338;2022-10-17T03:32:43;154.10;1920.00
70593;DHT22;58294;42.988;20.338;2022-10-17T03:35:09;154.10;1894.40
70593;DHT22;58294;42.988;20.338;2022-10-17T03:37:35;154.10;1894.40
70593;DHT22;58294;42.988;20.338;2022-10-17T03:40:01;154.10;1920.00
70593;DHT22;58294;42.988;20.338;2022-10-17T03:42:26;154.10;1920.00
70593;DHT22;58294;42.988;20.338;2022-10-17T03:44:52;154.10;1920.00
70593;DHT22;58294;42.988;20.338;2022-10-17T03:47:18;154.10;1945.60
70593;DHT22;58294;42.988;20.338;2022-10-17T03:49:44;154.10;1945.60
70593;DHT22;58294;42.988;20.338;2022-10-17T03:52:11;154.10;1945.60
70593;DHT22;58294;42.988;20.338;2022-10-17T03:54:37;154.30;1945.60
70593;DHT22;58294;42.988;20.338;2022-10-17T03:57:03;154.20;1945.60
70593;DHT22;58294;42.988;20.338;2022-10-17T03:59:29;154.30;1945.60
70593;DHT22;58294;42.988;20.338;2022-10-17T04:01:55;154.30;1945.60
70593;DHT22;58294;42.988;20.338;2022-10-17T04:04:21;154.30;1945.60
70593;DHT22;58294;42.988;20.338;2022-10-17T04:06:46;154.30;1945.60
70593;DHT22;58294;42.988;20.338;2022-10-17T04:09:12;154.30;1945.60
70593;DHT22;58294;42.988;20.338;2022-10-17T04:11:38;154.40;1945.60
70593;DHT22;58294;42.988;20.338;2022-10-17T04:14:04;154.40;1945.60
70593;DHT22;58294;42.988;20.338;2022-10-17T04:16:30;154.40;1971.20
70593;DHT22;58294;42.988;20.338;2022-10-17T04:18:57;154.50;1971.20
70593;DHT22;58294;42.988;20.338;2022-10-17T04:21:27;154.50;1945.60
70593;DHT22;58294;42.988;20.338;2022-10-17T04:23:59;154.50;1945.60
70593;DHT22;58294;42.988;20.338;2022-10-17T04:26:25;154.40;1945.60
70593;DHT22;58294;42.988;20.338;2022-10-17T04:28:51;154.40;1971.20
70593;DHT22;58294;42.988;20.338;2022-10-17T04:31:17;154.50;1996.80
70593;DHT22;58294;42.988;20.338;2022-10-17T04:33:46;154.50;1971.20
70593;DHT22;58294;42.988;20.338;2022-10-17T04:36:14;154.50;1971.20
70593;DHT22;58294;42.988;20.338;2022-10-17T04:38:41;179.20;1971.20
70593;DHT22;58294;42.988;20.338;2022-10-17T04:41:10;179.20;1971.20
70593;DHT22;58294;42.988;20.338;2022-10-17T04:43:37;179.20;1971.20
70593;DHT22;58294;42.988;20.338;2022-10-17T04:46:06;179.20;1971.20
70593;DHT22;58294;42.988;20.338;2022-10-17T04:48:32;179.20;1971.20
70593;DHT22;58294;42.988;20.338;2022-10-17T04:51:00;179.20;1996.80
70593;DHT22;58294;42.988;20.338;2022-10-17T04:53:27;179.30;1996.80
70593;DHT22;58294;42.988;20.338;2022-10-17T04:55:55;179.30;1996.80
70593;DHT22;58294;42.988;20.338;2022-10-17T04:58:21;179.30;1996.80
70593;DHT22;58294;42.988;20.338;2022-10-17T05:00:47;179.40;1996.80
70593;DHT22;58294;42.988;20.338;2022-10-17T05:03:13;179.40;1996.80
70593;DHT22;58294;42.988;20.338;2022-10-17T05:05:40;179.50;1996.80
70593;DHT22;58294;42.988;20.338;2022-10-17T05:08:07;179.50;1971.20
70593;DHT22;58294;42.988;20.338;2022-10-17T05:10:41;179.50;1971.20
70593;DHT22;58294;42.988;20.338;2022-10-17T05:13:08;179.40;1971.20
70593;DHT22;58294;42.988;20.338;2022-10-17T05:15:34;179.40;1971.20
70593;DHT22;58294;42.988;20.338;2022-10-17T05:18:00;179.40;1996.80
70593;DHT22;58294;42.988;20.338;2022-10-17T05:20:26;179.40;1996.80
70593;DHT22;58294;42.988;20.338;2022-10-17T05:22:52;179.40;2022.40
70593;DHT22;58294;42.988;20.338;2022-10-17T05:25:18;179.50;2022.40
70593;DHT22;58294;42.988;20.338;2022-10-17T05:27:45;179.50;1996.80
70593;DHT22;58294;42.988;20.338;2022-10-17T05:30:11;179.60;1996.80
70593;DHT22;58294;42.988;20.338;2022-10-17T05:32:37;179.60;1996.80
70593;DHT22;58294;42.988;20.338;2022-10-17T05:35:03;179.60;1996.80
70593;DHT22;58294;42.988;20.338;2022-10-17T05:37:30;179.60;2022.40
70593;DHT22;58294;42.988;20.338;2022-10-17T05:39:56;179.60;2048.00
70593;DHT22;58294;42.988;20.338;2022-10-17T05:42:22;179.70;2048.00
70593;DHT22;58294;42.988;20.338;2022-10-17T05:44:48;179.70;2048.00
70593;DHT22;58294;42.988;20.338;2022-10-17T05:47:15;179.70;2022.40
70593;DHT22;58294;42.988;20.338;2022-10-17T05:49:40;179.70;2022.40
70593;DHT22;58294;42.988;20.338;2022-10-17T05:52:06;179.70;2048.00
70593;DHT22;58294;42.988;20.338;2022-10-17T05:54:32;179.70;2048.00
70593;DHT22;58294;42.988;20.338;2022-10-17T05:56:58;179.80;2048.00
70593;DHT22;58294;42.988;20.338;2022-10-17T05:59:25;179.80;2073.60
70593;DHT22;58294;42.988;20.338;2022-10-17T06:01:51;179.80;2099.20
70593;DHT22;58294;42.988;20.338;2022-10-17T06:04:17;179.90;2124.80
70593;DHT22;58294;42.988;20.338;2022-10-17T06:06:43;180.00;2124.80
70593;DHT22;58294;42.988;20.338;2022-10-17T06:09:09;180.10;2124.80
70593;DHT22;58294;42.988;20.338;2022-10-17T06:11:35;204.80;2150.40
70593;DHT22;58294;42.988;20.338;2022-10-17T06:14:01;204.90;2124.80
70593;DHT22;58294;42.988;20.338;2022-10-17T06:16:27;204.90;2124.80
70593;DHT22;58294;42.988;20.338;2022-10-17T06:18:53;205.00;2150.40
70593;DHT22;58294;42.988;20.338;2022-10-17T06:21:24;205.10;2124.80
70593;DHT22;58294;42.988;20.338;2022-10-17T06:23:51;205.10;2124.80
70593;DHT22;58294;42.988;20.338;2022-10-17T06:26:17;205.20;2124.80
70593;DHT22;58294;42.988;20.338;2022-10-17T06:28:43;205.30;2124.80
70593;DHT22;58294;42.988;20.338;2022-10-17T06:31:11;205.30;2099.20
70593;DHT22;58294;42.988;20.338;2022-10-17T06:33:38;205.40;2150.40
70593;DHT22;58294;42.988;20.338;2022-10-17T06:36:05;205.40;2124.80
70593;DHT22;58294;42.988;20.338;2022-10-17T06:38:33;205.50;2150.40
70593;DHT22;58294;42.988;20.338;2022-10-17T06:41:06;205.60;2124.80
70593;DHT22;58294;42.988;20.338;2022-10-17T06:43:36;205.60;2124.80
70593;DHT22;58294;42.988;20.338;2022-10-17T06:46:03;205.60;2124.80
70593;DHT22;58294;42.988;20.338;2022-10-17T06:48:29;205.60;2099.20
70593;DHT22;58294;42.988;20.338;2022-10-17T06:50:59;205.70;2099.20
70593;DHT22;58294;42.988;20.338;2022-10-17T06:53:29;205.70;2099.20
70593;DHT22;58294;42.988;20.338;2022-10-17T06:55:55;205.70;2124.80
70593;DHT22;58294;42.988;20.338;2022-10-17T06:58:27;230.40;2099.20
70593;DHT22;58294;42.988;20.338;2022-10-17T07:01:01;230.40;2099.20
70593;DHT22;58294;42.988;20.338;2022-10-17T07:03:27;230.40;2124.80
70593;DHT22;58294;42.988;20.338;2022-10-17T07:05:54;230.50;2073.60
70593;DHT22;58294;42.988;20.338;2022-10-17T07:08:20;230.60;2099.20
70593;DHT22;58294;42.988;20.338;2022-10-17T07:10:46;230.60;2099.20
70593;DHT22;58294;42.988;20.338;2022-10-17T07:13:12;230.60;2099.20
70593;DHT22;58294;42.988;20.338;2022-10-17T07:15:38;230.70;2099.20
70593;DHT22;58294;42.988;20.338;2022-10-17T07:18:05;230.70;2124.80
70593;DHT22;58294;42.988;20.338;2022-10-17T07:20:31;230.70;2124.80
70593;DHT22;58294;42.988;20.338;2022-10-17T07:22:57;230.80;2150.40
70593;DHT22;58294;42.988;20.338;2022-10-17T07:25:23;230.90;2150.40
70593;DHT22;58294;42.988;20.338;2022-10-17T07:27:49;231.00;2150.40
70593;DHT22;58294;42.988;20.338;2022-10-17T07:30:16;231.00;2124.80
70593;DHT22;58294;42.988;20.338;2022-10-17T07:32:43;231.10;2124.80
70593;DHT22;58294;42.988;20.338;2022-10-17T07:35:10;231.10;2099.20
70593;DHT22;58294;42.988;20.338;2022-10-17T07:37:36;231.20;2099.20
70593;DHT22;58294;42.988;20.338;2022-10-17T07:40:03;231.30;2124.80
70593;DHT22;58294;42.988;20.338;2022-10-17T07:42:29;256.00;2176.00
70593;DHT22;58294;42.988;20.338;2022-10-17T07:44:55;256.10;2124.80
70593;DHT22;58294;42.988;20.338;2022-10-17T07:47:21;256.20;2124.80
70593;DHT22;58294;42.988;20.338;2022-10-17T07:49:47;256.20;2124.80
70593;DHT22;58294;42.988;20.338;2022-10-17T07:52:14;256.30;2124.80
70593;DHT22;58294;42.988;20.338;2022-10-17T07:54:40;256.40;2124.80
70593;DHT22;58294;42.988;20.338;2022-10-17T07:57:06;256.40;2099.20
70593;DHT22;58294;42.988;20.338;2022-10-17T07:59:33;256.50;2124.80
70593;DHT22;58294;42.988;20.338;2022-10-17T08:01:59;256.60;2150.40
70593;DHT22;58294;42.988;20.338;2022-10-17T08:04:26;256.70;2124.80
70593;DHT22;58294;42.988;20.338;2022-10-17T08:19:41;256.80;2150.40
70593;DHT22;58294;42.988;20.338;2022-10-17T08:22:07;307.40;2176.00
70593;DHT22;58294;42.988;20.338;2022-10-17T08:24:33;307.40;2201.60
70593;DHT22;58294;42.988;20.338;2022-10-17T08:26:59;307.50;2227.20
70593;DHT22;58294;42.988;20.338;2022-10-17T08:29:27;307.60;2227.20
70593;DHT22;58294;42.988;20.338;2022-10-17T08:31:53;307.70;2227.20
70593;DHT22;58294;42.988;20.338;2022-10-17T08:34:18;307.80;2252.80
70593;DHT22;58294;42.988;20.338;2022-10-17T08:36:44;307.90;2227.20
70593;DHT22;58294;42.988;20.338;2022-10-17T08:39:10;308.10;2201.60
70593;DHT22;58294;42.988;20.338;2022-10-17T08:44:38;332.90;2278.40
70593;DHT22;58294;42.988;20.338;2022-10-17T08:47:12;333.10;2329.60
70593;DHT22;58294;42.988;20.338;2022-10-17T08:49:54;333.30;2278.40
70593;DHT22;58294;42.988;20.338;2022-10-17T08:54:50;333.50;2252.80
70593;DHT22;58294;42.988;20.338;2022-10-17T08:57:17;333.70;2252.80
70593;DHT22;58294;42.988;20.338;2022-10-17T08:59:44;358.50;2278.40
70593;DHT22;58294;42.988;20.338;2022-10-17T09:07:24;358.90;2304.00
70593;DHT22;58294;42.988;20.338;2022-10-17T09:10:01;359.10;2304.00
70593;DHT22;58294;42.988;20.338;2022-10-17T09:17:54;384.30;2329.60
70593;DHT22;58294;42.988;20.338;2022-10-17T09:20:25;384.50;2329.60
70593;DHT22;58294;42.988;20.338;2022-10-17T09:22:57;384.70;2329.60
70593;DHT22;58294;42.988;20.338;2022-10-17T09:25:25;384.80;2329.60
70593;DHT22;58294;42.988;20.338;2022-10-17T09:28:05;409.70;2355.20
70593;DHT22;58294;42.988;20.338;2022-10-17T09:30:41;435.20;2355.20
70593;DHT22;58294;42.988;20.338;2022-10-17T09:33:15;435.90;2355.20
70593;DHT22;58294;42.988;20.338;2022-10-17T09:35:42;461.20;2380.80
70593;DHT22;58294;42.988;20.338;2022-10-17T09:38:20;486.70;2380.80
70593;DHT22;58294;42.988;20.338;2022-10-17T11:17:29;691.20;1689.60
70593;DHT22;58294;42.988;20.338;2022-10-17T11:20:15;692.00;1305.60
70593;DHT22;58294;42.988;20.338;2022-10-17T11:22:48;692.00;1228.80
70593;DHT22;58294;42.988;20.338;2022-10-17T11:25:33;716.80;998.40
70593;DHT22;58294;42.988;20.338;2022-10-17T11:30:38;717.20;1254.40
70593;DHT22;58294;42.988;20.338;2022-10-17T11:33:04;717.10;1024.00
70593;DHT22;58294;42.988;20.338;2022-10-17T11:35:39;716.80;998.40
70593;DHT22;58294;42.988;20.338;2022-10-17T11:43:55;666.00;921.60
70593;DHT22;58294;42.988;20.338;2022-10-17T11:46:24;640.90;793.60
70593;DHT22;58294;42.988;20.338;2022-10-17T11:49:15;640.50;896.00
70593;DHT22;58294;42.988;20.338;2022-10-17T11:51:50;640.20;972.80
70593;DHT22;58294;42.988;20.338;2022-10-17T11:54:32;615.30;921.60
70593;DHT22;58294;42.988;20.338;2022-10-17T12:00:05;614.90;947.20
70593;DHT22;58294;42.988;20.338;2022-10-17T12:08:46;589.40;972.80
70593;DHT22;58294;42.988;20.338;2022-10-17T12:11:48;589.20;947.20
70593;DHT22;58294;42.988;20.338;2022-10-17T12:14:46;589.10;998.40
70593;DHT22;58294;42.988;20.338;2022-10-17T12:17:31;589.10;972.80
70593;DHT22;58294;42.988;20.338;2022-10-17T12:22:50;564.10;972.80
70593;DHT22;58294;42.988;20.338;2022-10-17T12:25:29;564.00;998.40
70593;DHT22;58294;42.988;20.338;2022-10-17T12:28:12;564.00;972.80
70593;DHT22;58294;42.988;20.338;2022-10-17T12:31:06;563.90;972.80
70593;DHT22;58294;42.988;20.338;2022-10-17T12:33:37;563.80;998.40
70593;DHT22;58294;42.988;20.338;2022-10-17T12:49:37;563.40;1024.00
70593;DHT22;58294;42.988;20.338;2022-10-17T13:09:29;563.20;1024.00
70593;DHT22;58294;42.988;20.338;2022-10-17T13:11:59;563.70;1024.00
70593;DHT22;58294;42.988;20.338;2022-10-17T13:14:26;563.50;1024.00
70593;DHT22;58294;42.988;20.338;2022-10-17T13:17:01;563.40;1024.00
70593;DHT22;58294;42.988;20.338;2022-10-17T13:19:42;563.30;1049.60
70593;DHT22;58294;42.988;20.338;2022-10-17T13:22:17;563.20;1049.60
70593;DHT22;58294;42.988;20.338;2022-10-17T13:24:44;538.50;1024.00
70593;DHT22;58294;42.988;20.338;2022-10-17T13:27:30;538.40;1024.00
70593;DHT22;58294;42.988;20.338;2022-10-17T13:29:58;538.40;1024.00
70593;DHT22;58294;42.988;20.338;2022-10-17T13:32:36;538.40;1024.00
70593;DHT22;58294;42.988;20.338;2022-10-17T13:35:15;538.40;1024.00
70593;DHT22;58294;42.988;20.338;2022-10-17T13:37:45;538.40;1024.00
70593;DHT22;58294;42.988;20.338;2022-10-17T13:40:19;538.30;1024.00
70593;DHT22;58294;42.988;20.338;2022-10-17T13:42:46;538.30;1049.60
70593;DHT22;58294;42.988;20.338;2022-10-17T13:45:18;538.30;1049.60
70593;DHT22;58294;42.988;20.338;2022-10-17T13:47:45;538.20;1049.60
70593;DHT22;58294;42.988;20.338;2022-10-17T13:50:25;538.20;1049.60
70593;DHT22;58294;42.988;20.338;2022-10-17T13:56:14;538.20;1049.60
70593;DHT22;58294;42.988;20.338;2022-10-17T13:58:45;538.10;1049.60
70593;DHT22;58294;42.988;20.338;2022-10-17T14:01:12;538.00;1075.20
70593;DHT22;58294;42.988;20.338;2022-10-17T14:03:41;538.00;1075.20
70593;DHT22;58294;42.988;20.338;2022-10-17T14:06:31;538.00;1075.20
70593;DHT22;58294;42.988;20.338;2022-10-17T14:09:06;537.90;1075.20
70593;DHT22;58294;42.988;20.338;2022-10-17T14:11:38;537.90;1075.20
70593;DHT22;58294;42.988;20.338;2022-10-17T14:14:06;537.90;1075.20
70593;DHT22;58294;42.988;20.338;2022-10-17T14:16:41;537.90;1075.20
70593;DHT22;58294;42.988;20.338;2022-10-17T14:19:31;537.90;1075.20
70593;DHT22;58294;42.988;20.338;2022-10-17T14:24:45;537.70;1075.20
70593;DHT22;58294;42.988;20.338;2022-10-17T14:27:33;537.60;1075.20
70593;DHT22;58294;42.988;20.338;2022-10-17T14:30:03;537.60;1075.20
70593;DHT22;58294;42.988;20.338;2022-10-17T14:32:31;537.60;1100.80
70593;DHT22;58294;42.988;20.338;2022-10-17T14:35:00;537.60;1100.80
70593;DHT22;58294;42.988;20.338;2022-10-17T14:37:51;537.60;1100.80
70593;DHT22;58294;42.988;20.338;2022-10-17T14:40:18;537.60;1100.80
70593;DHT22;58294;42.988;20.338;2022-10-17T14:42:46;512.90;1075.20
70593;DHT22;58294;42.988;20.338;2022-10-17T14:45:31;512.90;1075.20
70593;DHT22;58294;42.988;20.338;2022-10-17T14:48:10;512.90;1075.20
70593;DHT22;58294;42.988;20.338;2022-10-17T14:50:37;512.90;1075.20
70593;DHT22;58294;42.988;20.338;2022-10-17T14:55:57;512.80;1075.20
70593;DHT22;58294;42.988;20.338;2022-10-17T14:58:31;512.80;1075.20
70593;DHT22;58294;42.988;20.338;2022-10-17T15:00:58;512.60;1075.20
70593;DHT22;58294;42.988;20.338;2022-10-17T15:03:25;512.60;1075.20
70593;DHT22;58294;42.988;20.338;2022-10-17T15:05:52;512.60;1100.80
70593;DHT22;58294;42.988;20.338;2022-10-17T15:08:20;512.60;1100.80
70593;DHT22;58294;42.988;20.338;2022-10-17T15:10:48;512.50;1075.20
70593;DHT22;58294;42.988;20.338;2022-10-17T15:13:14;512.50;1075.20
70593;DHT22;58294;42.988;20.338;2022-10-17T15:15:40;512.40;1075.20
70593;DHT22;58294;42.988;20.338;2022-10-17T15:18:09;512.30;1075.20
70593;DHT22;58294;42.988;20.338;2022-10-17T15:20:36;512.20;1075.20
70593;DHT22;58294;42.988;20.338;2022-10-17T15:23:02;512.10;1075.20
70593;DHT22;58294;42.988;20.338;2022-10-17T15:25:29;487.30;1075.20
70593;DHT22;58294;42.988;20.338;2022-10-17T15:27:56;487.20;1075.20
70593;DHT22;58294;42.988;20.338;2022-10-17T15:30:29;487.10;1075.20
70593;DHT22;58294;42.988;20.338;2022-10-17T15:32:56;486.90;1100.80
70593;DHT22;58294;42.988;20.338;2022-10-17T15:35:22;486.80;1100.80
70593;DHT22;58294;42.988;20.338;2022-10-17T15:37:48;486.60;1100.80
70593;DHT22;58294;42.988;20.338;2022-10-17T15:40:25;486.50;1100.80
70593;DHT22;58294;42.988;20.338;2022-10-17T15:42:53;486.40;1100.80
70593;DHT22;58294;42.988;20.338;2022-10-17T15:45:19;461.70;1126.40
70593;DHT22;58294;42.988;20.338;2022-10-17T15:47:52;461.50;1126.40
70593;DHT22;58294;42.988;20.338;2022-10-17T15:50:18;461.40;1126.40
70593;DHT22;58294;42.988;20.338;2022-10-17T15:52:46;461.30;1152.00
70593;DHT22;58294;42.988;20.338;2022-10-17T15:55:12;461.20;1152.00
70593;DHT22;58294;42.988;20.338;2022-10-17T15:57:40;461.00;1152.00
70593;DHT22;58294;42.988;20.338;2022-10-17T16:00:18;460.90;1152.00
70593;DHT22;58294;42.988;20.338;2022-10-17T16:02:45;460.80;1152.00
70593;DHT22;58294;42.988;20.338;2022-10-17T16:05:22;436.00;1152.00
70593;DHT22;58294;42.988;20.338;2022-10-17T16:07:50;435.90;1152.00
70593;DHT22;58294;42.988;20.338;2022-10-17T16:10:17;435.70;1177.60
70593;DHT22;58294;42.988;20.338;2022-10-17T16:15:16;435.50;1177.60
70593;DHT22;58294;42.988;20.338;2022-10-17T16:17:42;435.30;1152.00
70593;DHT22;58294;42.988;20.338;2022-10-17T16:20:12;435.20;1177.60
70593;DHT22;58294;42.988;20.338;2022-10-17T16:22:39;435.20;1177.60
70593;DHT22;58294;42.988;20.338;2022-10-17T16:27:47;410.30;1177.60
70593;DHT22;58294;42.988;20.338;2022-10-17T16:30:14;410.20;1177.60
70593;DHT22;58294;42.988;20.338;2022-10-17T16:32:40;410.10;1177.60
70593;DHT22;58294;42.988;20.338;2022-10-17T16:35:06;410.10;1177.60
70593;DHT22;58294;42.988;20.338;2022-10-17T16:37:32;410.00;1203.20
70593;DHT22;58294;42.988;20.338;2022-10-17T16:40:00;410.00;1177.60
70593;DHT22;58294;42.988;20.338;2022-10-17T16:42:26;409.80;1203.20
70593;DHT22;58294;42.988;20.338;2022-10-17T16:44:52;409.70;1203.20
70593;DHT22;58294;42.988;20.338;2022-10-17T16:47:18;409.60;1203.20
70593;DHT22;58294;42.988;20.338;2022-10-17T16:49:44;384.80;1177.60
70593;DHT22;58294;42.988;20.338;2022-10-17T16:52:10;384.70;1203.20
70593;DHT22;58294;42.988;20.338;2022-10-17T16:54:36;384.50;1177.60
70593;DHT22;58294;42.988;20.338;2022-10-17T16:57:02;384.50;1177.60
70593;DHT22;58294;42.988;20.338;2022-10-17T16:59:28;384.40;1177.60
70593;DHT22;58294;42.988;20.338;2022-10-17T17:01:54;384.40;1203.20
70593;DHT22;58294;42.988;20.338;2022-10-17T17:04:20;384.20;1203.20
70593;DHT22;58294;42.988;20.338;2022-10-17T17:06:47;384.10;1203.20
70593;DHT22;58294;42.988;20.338;2022-10-17T17:09:13;384.00;1203.20
70593;DHT22;58294;42.988;20.338;2022-10-17T17:11:38;359.20;1203.20
70593;DHT22;58294;42.988;20.338;2022-10-17T17:14:06;359.10;1228.80
70593;DHT22;58294;42.988;20.338;2022-10-17T17:16:33;359.10;1228.80
70593;DHT22;58294;42.988;20.338;2022-10-17T17:19:09;359.00;1228.80
70593;DHT22;58294;42.988;20.338;2022-10-17T17:21:35;359.00;1254.40
70593;DHT22;58294;42.988;20.338;2022-10-17T17:24:02;358.90;1228.80
70593;DHT22;58294;42.988;20.338;2022-10-17T17:26:30;358.90;1254.40
70593;DHT22;58294;42.988;20.338;2022-10-17T17:28:58;358.80;1254.40
70593;DHT22;58294;42.988;20.338;2022-10-17T17:31:27;358.60;1254.40
70593;DHT22;58294;42.988;20.338;2022-10-17T17:33:53;358.60;1280.00
70593;DHT22;58294;42.988;20.338;2022-10-17T17:36:22;358.40;1280.00
70593;DHT22;58294;42.988;20.338;2022-10-17T17:38:49;358.40;1254.40
70593;DHT22;58294;42.988;20.338;2022-10-17T17:41:16;333.70;1280.00
70593;DHT22;58294;42.988;20.338;2022-10-17T17:43:44;333.60;1280.00
70593;DHT22;58294;42.988;20.338;2022-10-17T17:46:10;333.60;1305.60
70593;DHT22;58294;42.988;20.338;2022-10-17T17:48:38;333.50;1305.60
70593;DHT22;58294;42.988;20.338;2022-10-17T17:51:05;333.40;1280.00
70593;DHT22;58294;42.988;20.338;2022-10-17T17:53:31;333.40;1305.60
70593;DHT22;58294;42.988;20.338;2022-10-17T17:58:27;333.20;1305.60
70593;DHT22;58294;42.988;20.338;2022-10-17T18:00:53;333.10;1331.20
70593;DHT22;58294;42.988;20.338;2022-10-17T18:03:18;333.00;1331.20
70593;DHT22;58294;42.988;20.338;2022-10-17T18:05:44;332.90;1331.20
70593;DHT22;58294;42.988;20.338;2022-10-17T18:08:10;332.90;1356.80
70593;DHT22;58294;42.988;20.338;2022-10-17T18:10:36;332.80;1331.20
70593;DHT22;58294;42.988;20.338;2022-10-17T18:13:01;308.10;1331.20
70593;DHT22;58294;42.988;20.338;2022-10-17T18:15:27;308.10;1331.20
70593;DHT22;58294;42.988;20.338;2022-10-17T18:17:53;308.10;1331.20
70593;DHT22;58294;42.988;20.338;2022-10-17T18:20:19;308.00;1356.80
70593;DHT22;58294;42.988;20.338;2022-10-17T18:22:44;308.00;1305.60
70593;DHT22;58294;42.988;20.338;2022-10-17T18:25:10;307.90;1331.20